M I D A S
Marine Information and Data Acquisition System
Tripno 1746 of the Zeeleeuw from 2009-08-05 07:12:31 to 2009-08-05 14:17:09
Back to CruiseResearch ActivitiesStationsMapUnderway DataData graphs

EquipmentUnitsComment
TimeDGPSUTC
LatitudeDGPSDM.mWGS84
LongitudeDGPSDM.mWGS84
HeadingGyrodeg 
SOGDGPSknotsSpeed over ground
COGDGPSdegCourse over ground
DepthEcho soundermeters200 kHz
Missing or incorrect values are displayed as -999
Navigation data collected by the RV Zeeleeuw from 2009-08-05 06:03:10 to 2009-08-05 15:33:31
                                                                                    Next 1000 lines
Time Latitude Longitude Heading SOG COG Depth
2009-08-05 06:03:21 51°13.659 2°55.96 128.8 0.1 230 -999
2009-08-05 06:03:25 51°13.659 2°55.959 129.4 0.1 228 -999
2009-08-05 06:03:31 51°13.66 2°55.959 129.2 0.1 334 7.1
2009-08-05 06:03:35 51°13.66 2°55.959 128.6 0.1 292 7.1
2009-08-05 06:03:40 51°13.66 2°55.959 127.9 0.2 336 5.3
2009-08-05 06:03:44 51°13.66 2°55.959 127.2 0.1 323 7.2
2009-08-05 06:03:50 51°13.66 2°55.959 126.8 0.1 145 7.1
2009-08-05 06:03:55 51°13.66 2°55.959 126.4 0.1 127 7.2
2009-08-05 06:03:59 51°13.66 2°55.959 125.9 -999 156 5.4
2009-08-05 06:04:04 51°13.66 2°55.959 125.6 -999 249 5.4
2009-08-05 06:04:09 51°13.661 2°55.959 125.4 -999 163 7.1
2009-08-05 06:04:13 51°13.661 2°55.959 125.6 -999 140 7.2
2009-08-05 06:04:18 51°13.661 2°55.959 125.8 -999 96 7.1
2009-08-05 06:04:23 51°13.661 2°55.959 125.9 -999 132 7.1
2009-08-05 06:04:28 51°13.661 2°55.959 126 -999 84 7.1
2009-08-05 06:04:33 51°13.661 2°55.959 126.2 -999 52 7.1
2009-08-05 06:04:38 51°13.661 2°55.959 126.3 -999 143 7
2009-08-05 06:04:43 51°13.661 2°55.959 126.4 -999 122 7
2009-08-05 06:04:48 51°13.662 2°55.959 126.8 -999 21 7.1
2009-08-05 06:04:52 51°13.662 2°55.959 127.2 -999 332 7.1
2009-08-05 06:04:56 51°13.662 2°55.959 127.5 0.1 289 7.1
2009-08-05 06:05:02 51°13.662 2°55.959 127.8 0.1 337 7.1
2009-08-05 06:05:06 51°13.662 2°55.959 128 -999 299 7.1
2009-08-05 06:05:12 51°13.662 2°55.96 128.1 -999 46 7.1
2009-08-05 06:05:17 51°13.662 2°55.96 128.1 -999 46 7
2009-08-05 06:05:22 51°13.662 2°55.96 128 -999 2 7
2009-08-05 06:05:27 51°13.662 2°55.96 127.9 -999 209 7
2009-08-05 06:05:32 51°13.662 2°55.96 127.7 -999 260 7
2009-08-05 06:05:36 51°13.662 2°55.96 127.6 -999 244 5.3
2009-08-05 06:05:41 51°13.662 2°55.96 127.4 -999 257 7.1
2009-08-05 06:05:47 51°13.662 2°55.96 127.4 -999 247 7.1
2009-08-05 06:05:52 51°13.662 2°55.96 127.3 -999 309 7.1
2009-08-05 06:05:56 51°13.662 2°55.96 127.2 0.1 346 7.1
2009-08-05 06:06:02 51°13.662 2°55.96 127.2 -999 22 7
2009-08-05 06:06:07 51°13.662 2°55.96 127.2 -999 358 7
2009-08-05 06:06:12 51°13.662 2°55.96 127.2 -999 194 7
2009-08-05 06:06:17 51°13.662 2°55.96 127.2 -999 27 7
2009-08-05 06:06:22 51°13.662 2°55.96 127.2 0.1 163 7
2009-08-05 06:06:26 51°13.662 2°55.96 127.2 -999 313 7
2009-08-05 06:06:32 51°13.662 2°55.96 127.2 -999 178 7
2009-08-05 06:06:36 51°13.662 2°55.96 127.2 -999 111 7
2009-08-05 06:06:42 51°13.662 2°55.96 127.2 -999 194 7
2009-08-05 06:06:47 51°13.662 2°55.96 127.2 -999 177 5.3
2009-08-05 06:06:51 51°13.662 2°55.96 127.2 -999 159 7
2009-08-05 06:06:56 51°13.662 2°55.96 127.2 0.1 143 7.1
2009-08-05 06:07:02 51°13.662 2°55.96 127.2 -999 277 5.4
2009-08-05 06:07:07 51°13.662 2°55.96 127.2 -999 135 7.3
2009-08-05 06:07:12 51°13.662 2°55.96 127.2 -999 87 7.1
2009-08-05 06:07:16 51°13.662 2°55.96 127.2 -999 327 7.1
2009-08-05 06:07:22 51°13.662 2°55.96 127.2 -999 352 7.1
2009-08-05 06:07:27 51°13.662 2°55.96 127.2 -999 97 7.1
2009-08-05 06:07:32 51°13.662 2°55.96 127.2 -999 94 7.1
2009-08-05 06:07:36 51°13.662 2°55.96 127.3 -999 313 7
2009-08-05 06:07:42 51°13.662 2°55.96 127.4 -999 199 7.1
2009-08-05 06:07:47 51°13.662 2°55.96 127.4 -999 39 7.1
2009-08-05 06:07:52 51°13.662 2°55.96 127.6 -999 150 7.1
2009-08-05 06:07:56 51°13.662 2°55.96 127.6 -999 18 7.1
2009-08-05 06:08:01 51°13.662 2°55.96 127.7 -999 87 7.1
2009-08-05 06:08:07 51°13.662 2°55.96 127.6 -999 348 7.1
2009-08-05 06:08:12 51°13.662 2°55.959 127.6 -999 266 5.3
2009-08-05 06:08:17 51°13.662 2°55.959 127.6 -999 165 7
2009-08-05 06:08:21 51°13.662 2°55.959 127.6 -999 191 7
2009-08-05 06:08:27 51°13.662 2°55.959 127.6 0.1 188 7
2009-08-05 06:08:32 51°13.662 2°55.959 127.6 -999 286 7
2009-08-05 06:08:36 51°13.662 2°55.959 127.6 -999 353 7
2009-08-05 06:08:42 51°13.662 2°55.959 127.6 -999 33 7
2009-08-05 06:08:47 51°13.662 2°55.959 127.6 -999 194 7
2009-08-05 06:08:52 51°13.662 2°55.959 127.6 -999 344 7
2009-08-05 06:08:57 51°13.662 2°55.959 127.6 0.1 348 7
2009-08-05 06:09:02 51°13.662 2°55.959 127.6 -999 316 7
2009-08-05 06:09:07 51°13.662 2°55.959 127.6 -999 178 7
2009-08-05 06:09:12 51°13.662 2°55.959 127.5 -999 217 7
2009-08-05 06:09:16 51°13.662 2°55.959 127.4 0.1 332 7
2009-08-05 06:09:22 51°13.662 2°55.959 127.4 -999 272 7
2009-08-05 06:09:27 51°13.662 2°55.959 127.4 -999 102 7
2009-08-05 06:09:32 51°13.662 2°55.959 127.4 -999 332 7
2009-08-05 06:09:36 51°13.662 2°55.959 127.4 -999 296 7
2009-08-05 06:09:41 51°13.662 2°55.959 127.3 -999 359 5.3
2009-08-05 06:09:47 51°13.662 2°55.959 127.3 -999 29 7
2009-08-05 06:09:52 51°13.662 2°55.959 127.2 -999 163 7
2009-08-05 06:09:56 51°13.662 2°55.959 127.2 -999 175 7.1
2009-08-05 06:10:02 51°13.662 2°55.959 127.1 -999 301 7.1
2009-08-05 06:10:07 51°13.662 2°55.959 127.1 -999 78 7.1
2009-08-05 06:10:12 51°13.662 2°55.959 127.1 -999 140 7.1
2009-08-05 06:10:16 51°13.662 2°55.959 127 -999 157 7.2
2009-08-05 06:10:21 51°13.662 2°55.959 127 -999 210 7.2
2009-08-05 06:10:27 51°13.662 2°55.959 127 -999 142 7.1
2009-08-05 06:10:32 51°13.662 2°55.959 126.9 -999 325 5.4
2009-08-05 06:10:36 51°13.662 2°55.959 126.8 -999 295 7.2
2009-08-05 06:10:42 51°13.662 2°55.959 126.7 -999 186 7.1
2009-08-05 06:10:47 51°13.662 2°55.959 126.6 -999 340 7.2
2009-08-05 06:10:52 51°13.662 2°55.959 126.6 -999 354 7.1
2009-08-05 06:10:56 51°13.662 2°55.959 126.5 -999 330 -999
2009-08-05 06:11:02 51°13.662 2°55.959 126.5 -999 15 7.1
2009-08-05 06:11:07 51°13.662 2°55.959 126.5 -999 67 7.1
2009-08-05 06:11:12 51°13.662 2°55.959 126.5 0.1 331 7.1
2009-08-05 06:11:16 51°13.662 2°55.959 126.5 -999 353 7.1
2009-08-05 06:11:22 51°13.662 2°55.959 126.5 -999 312 7.1
2009-08-05 06:11:27 51°13.662 2°55.959 126.5 -999 117 7.1
2009-08-05 06:11:31 51°13.662 2°55.959 126.4 -999 23 7.1
2009-08-05 06:11:36 51°13.662 2°55.959 126.4 -999 337 7.1
2009-08-05 06:11:42 51°13.662 2°55.959 126.4 -999 192 7.1
2009-08-05 06:11:47 51°13.662 2°55.959 126.3 -999 176 5.3
2009-08-05 06:11:52 51°13.662 2°55.959 126.3 -999 180 7.1
2009-08-05 06:11:56 51°13.662 2°55.959 126.2 -999 124 7.1
2009-08-05 06:12:02 51°13.662 2°55.959 126.2 -999 10 5.4
2009-08-05 06:12:07 51°13.662 2°55.959 126.2 -999 331 7.2
2009-08-05 06:12:12 51°13.662 2°55.959 126.2 -999 338 7.2
2009-08-05 06:12:16 51°13.662 2°55.959 126.2 0.1 166 7.1
2009-08-05 06:12:22 51°13.662 2°55.959 126.2 -999 321 7.1
2009-08-05 06:12:27 51°13.662 2°55.959 126.2 -999 335 7.1
2009-08-05 06:12:32 51°13.662 2°55.959 126.2 -999 330 5.3
2009-08-05 06:12:36 51°13.662 2°55.959 126.2 -999 241 7.1
2009-08-05 06:12:42 51°13.662 2°55.959 126.2 -999 358 7
2009-08-05 06:12:47 51°13.662 2°55.959 126.2 -999 176 7.1
2009-08-05 06:12:52 51°13.662 2°55.959 126.2 -999 113 7.1
2009-08-05 06:12:56 51°13.662 2°55.959 126.1 -999 266 7.1
2009-08-05 06:13:02 51°13.662 2°55.959 126 -999 73 7.1
2009-08-05 06:13:07 51°13.662 2°55.959 126 -999 183 5.4
2009-08-05 06:13:12 51°13.662 2°55.959 126 -999 140 7.1
2009-08-05 06:13:17 51°13.662 2°55.959 126 -999 315 7.2
2009-08-05 06:13:22 51°13.662 2°55.959 126 -999 39 7.2
2009-08-05 06:13:27 51°13.662 2°55.959 126 -999 200 5.4
2009-08-05 06:13:31 51°13.662 2°55.959 126 -999 37 7.2
2009-08-05 06:13:36 51°13.662 2°55.959 126 -999 198 7.1
2009-08-05 06:13:42 51°13.662 2°55.959 126 -999 359 7.1
2009-08-05 06:13:47 51°13.662 2°55.959 126 -999 351 5.4
2009-08-05 06:13:51 51°13.662 2°55.959 126 -999 117 7.1
2009-08-05 06:13:56 51°13.662 2°55.959 126 -999 57 7.1
2009-08-05 06:14:02 51°13.662 2°55.959 125.9 -999 340 7.1
2009-08-05 06:14:07 51°13.662 2°55.959 125.9 -999 330 7.1
2009-08-05 06:14:12 51°13.662 2°55.959 125.9 -999 349 7.1
2009-08-05 06:14:16 51°13.662 2°55.959 125.9 -999 336 7.1
2009-08-05 06:14:22 51°13.662 2°55.959 125.9 -999 159 7.1
2009-08-05 06:14:27 51°13.662 2°55.959 125.8 -999 227 7.2
2009-08-05 06:14:32 51°13.662 2°55.959 125.8 -999 348 7.2
2009-08-05 06:14:36 51°13.662 2°55.96 125.8 -999 301 -999
2009-08-05 06:14:42 51°13.662 2°55.96 125.8 -999 286 7.2
2009-08-05 06:14:47 51°13.662 2°55.96 125.8 -999 354 7.1
2009-08-05 06:14:52 51°13.662 2°55.96 125.8 -999 3 5.4
2009-08-05 06:14:57 51°13.662 2°55.96 125.8 -999 320 7.1
2009-08-05 06:15:02 51°13.662 2°55.96 125.8 -999 330 7.1
2009-08-05 06:15:06 51°13.662 2°55.96 125.8 -999 157 7.1
2009-08-05 06:15:12 51°13.662 2°55.96 125.8 -999 344 -999
2009-08-05 06:15:16 51°13.663 2°55.96 125.8 -999 339 7.1
2009-08-05 06:15:22 51°13.662 2°55.96 125.9 -999 346 7.1
2009-08-05 06:15:27 51°13.662 2°55.96 125.9 -999 254 7.1
2009-08-05 06:15:32 51°13.662 2°55.96 125.9 -999 25 7.2
2009-08-05 06:15:36 51°13.662 2°55.96 126 -999 35 7.1
2009-08-05 06:15:42 51°13.662 2°55.96 126 -999 233 5.4
2009-08-05 06:15:47 51°13.662 2°55.96 126 -999 152 7.1
2009-08-05 06:15:51 51°13.662 2°55.96 126 -999 139 7.1
2009-08-05 06:15:56 51°13.662 2°55.96 126.1 -999 23 7.1
2009-08-05 06:16:02 51°13.662 2°55.96 126.2 -999 348 7.1
2009-08-05 06:16:07 51°13.662 2°55.96 126.2 -999 53 7.2
2009-08-05 06:16:12 51°13.662 2°55.96 126.2 -999 225 7.2
2009-08-05 06:16:16 51°13.662 2°55.96 126.3 -999 297 7.1
2009-08-05 06:16:22 51°13.662 2°55.96 126.3 0.1 340 7.1
2009-08-05 06:16:27 51°13.662 2°55.96 126.3 -999 304 7.1
2009-08-05 06:16:32 51°13.662 2°55.96 126.3 -999 31 7.1
2009-08-05 06:16:36 51°13.662 2°55.96 126.3 -999 296 5.4
2009-08-05 06:16:42 51°13.662 2°55.96 126.3 -999 57 7.1
2009-08-05 06:16:47 51°13.662 2°55.96 126.3 -999 25 7.1
2009-08-05 06:16:52 51°13.662 2°55.96 126.3 -999 45 7.1
2009-08-05 06:16:56 51°13.662 2°55.96 126.3 -999 44 7.1
2009-08-05 06:17:02 51°13.662 2°55.96 126.4 -999 38 7.1
2009-08-05 06:17:07 51°13.662 2°55.96 126.4 -999 76 7.1
2009-08-05 06:17:12 51°13.662 2°55.961 126.4 -999 48 7.1
2009-08-05 06:17:16 51°13.662 2°55.961 126.4 -999 302 5.3
2009-08-05 06:17:22 51°13.663 2°55.961 126.4 -999 273 7.1
2009-08-05 06:17:27 51°13.663 2°55.961 126.4 -999 253 7.1
2009-08-05 06:17:32 51°13.663 2°55.961 126.4 -999 290 5.3
2009-08-05 06:17:36 51°13.663 2°55.961 126.4 -999 250 7.1
2009-08-05 06:17:42 51°13.663 2°55.961 126.4 -999 35 7.1
2009-08-05 06:17:47 51°13.663 2°55.961 126.4 -999 40 7.1
2009-08-05 06:17:51 51°13.662 2°55.961 126.4 -999 42 7.1
2009-08-05 06:17:56 51°13.662 2°55.961 126.4 -999 39 7.1
2009-08-05 06:18:02 51°13.662 2°55.961 126.4 -999 26 7.1
2009-08-05 06:18:07 51°13.662 2°55.961 126.4 -999 41 7.1
2009-08-05 06:18:12 51°13.662 2°55.961 126.4 -999 37 7.1
2009-08-05 06:18:16 51°13.662 2°55.961 126.4 -999 33 7.1
2009-08-05 06:18:22 51°13.663 2°55.961 126.4 -999 42 7.1
2009-08-05 06:18:27 51°13.663 2°55.961 126.4 -999 24 7.1
2009-08-05 06:18:32 51°13.663 2°55.961 126.4 -999 229 7.1
2009-08-05 06:18:36 51°13.663 2°55.961 126.4 -999 235 7.1
2009-08-05 06:18:42 51°13.663 2°55.961 126.4 -999 355 7.1
2009-08-05 06:18:47 51°13.663 2°55.961 126.4 -999 349 7.1
2009-08-05 06:18:51 51°13.663 2°55.961 126.4 -999 284 7.1
2009-08-05 06:18:56 51°13.663 2°55.961 126.4 -999 3 5.4
2009-08-05 06:19:02 51°13.663 2°55.961 126.4 -999 341 7.1
2009-08-05 06:19:07 51°13.663 2°55.961 126.4 -999 215 7.1
2009-08-05 06:19:12 51°13.663 2°55.961 126.4 0.1 49 7.1
2009-08-05 06:19:16 51°13.663 2°55.961 126.4 -999 56 7.1
2009-08-05 06:19:22 51°13.663 2°55.961 126.4 -999 27 7.1
2009-08-05 06:19:27 51°13.663 2°55.961 126.4 -999 8 7.1
2009-08-05 06:19:32 51°13.663 2°55.961 126.4 -999 6 7.1
2009-08-05 06:19:36 51°13.663 2°55.96 126.4 -999 -999 7.1
2009-08-05 06:19:42 51°13.663 2°55.96 126.4 -999 26 7.1
2009-08-05 06:19:47 51°13.663 2°55.96 126.4 -999 268 7.1
2009-08-05 06:19:52 51°13.663 2°55.96 126.4 -999 347 7.1
2009-08-05 06:19:57 51°13.663 2°55.96 126.4 -999 260 7.1
2009-08-05 06:20:02 51°13.663 2°55.96 126.4 -999 331 7.1
2009-08-05 06:20:07 51°13.663 2°55.96 126.4 -999 56 5.4
2009-08-05 06:20:12 51°13.663 2°55.96 126.4 -999 42 7.1
2009-08-05 06:20:17 51°13.663 2°55.96 126.4 -999 246 7.1
2009-08-05 06:20:22 51°13.663 2°55.96 126.4 -999 219 5.4
2009-08-05 06:20:27 51°13.662 2°55.96 126.4 -999 212 7.1
2009-08-05 06:20:32 51°13.663 2°55.96 126.5 -999 253 7.1
2009-08-05 06:20:36 51°13.663 2°55.96 126.5 -999 221 7.1
2009-08-05 06:20:42 51°13.663 2°55.96 126.5 -999 16 5.4
2009-08-05 06:20:47 51°13.663 2°55.96 126.6 0.1 45 7.1
2009-08-05 06:20:52 51°13.663 2°55.96 126.6 -999 230 7.1
2009-08-05 06:20:56 51°13.663 2°55.959 126.7 -999 244 5.4
2009-08-05 06:21:02 51°13.663 2°55.959 126.7 0.1 237 7.1
2009-08-05 06:21:07 51°13.663 2°55.959 126.8 -999 292 7.1
2009-08-05 06:21:12 51°13.663 2°55.96 126.8 0.1 18 7.1
2009-08-05 06:21:16 51°13.663 2°55.96 126.9 0.1 36 5.3
2009-08-05 06:21:22 51°13.663 2°55.96 126.9 -999 248 7.1
2009-08-05 06:21:27 51°13.663 2°55.959 126.9 0.1 235 7.1
2009-08-05 06:21:32 51°13.663 2°55.959 126.9 0.1 239 -999
2009-08-05 06:21:36 51°13.663 2°55.959 126.9 -999 266 7.1
2009-08-05 06:21:42 51°13.663 2°55.959 126.9 -999 231 7.1
2009-08-05 06:21:47 51°13.663 2°55.959 126.9 -999 261 7.1
2009-08-05 06:21:52 51°13.663 2°55.959 126.9 0.1 33 7.1
2009-08-05 06:21:57 51°13.663 2°55.959 127 -999 55 7.1
2009-08-05 06:22:02 51°13.663 2°55.959 126.9 -999 226 7
2009-08-05 06:22:06 51°13.663 2°55.959 126.9 -999 79 7.1
2009-08-05 06:22:12 51°13.663 2°55.959 126.9 -999 54 7.1
2009-08-05 06:22:16 51°13.663 2°55.959 126.8 -999 5 7.1
2009-08-05 06:22:22 51°13.663 2°55.959 126.8 -999 12 7
2009-08-05 06:22:27 51°13.663 2°55.959 126.8 -999 17 5.3
2009-08-05 06:22:32 51°13.663 2°55.959 126.8 -999 12 7.1
2009-08-05 06:22:36 51°13.663 2°55.959 126.8 -999 17 7.1
2009-08-05 06:22:42 51°13.663 2°55.959 126.8 -999 242 7.1
2009-08-05 06:22:47 51°13.663 2°55.959 126.8 -999 247 5.3
2009-08-05 06:22:52 51°13.663 2°55.959 126.8 -999 252 7.1
2009-08-05 06:22:57 51°13.663 2°55.959 126.8 -999 254 7.2
2009-08-05 06:23:02 51°13.663 2°55.959 126.7 -999 259 7.2
2009-08-05 06:23:07 51°13.663 2°55.959 126.6 -999 266 7.2
2009-08-05 06:23:12 51°13.663 2°55.959 126.6 -999 263 7.1
2009-08-05 06:23:16 51°13.663 2°55.959 126.6 -999 257 7.1
2009-08-05 06:23:22 51°13.663 2°55.959 126.6 -999 260 7.1
2009-08-05 06:23:27 51°13.663 2°55.959 126.6 -999 265 7.1
2009-08-05 06:23:32 51°13.663 2°55.959 126.6 -999 253 7.1
2009-08-05 06:23:36 51°13.664 2°55.96 126.6 -999 290 5.4
2009-08-05 06:23:42 51°13.664 2°55.959 126.6 -999 26 7.1
2009-08-05 06:23:47 51°13.664 2°55.959 126.6 -999 48 7.1
2009-08-05 06:23:52 51°13.663 2°55.959 126.6 -999 150 5.4
2009-08-05 06:23:56 51°13.663 2°55.959 126.6 -999 198 7.2
2009-08-05 06:24:02 51°13.664 2°55.959 126.5 -999 119 7.2
2009-08-05 06:24:07 51°13.663 2°55.959 126.5 -999 129 5.4
2009-08-05 06:24:12 51°13.663 2°55.959 126.4 -999 155 7.2
2009-08-05 06:24:17 51°13.663 2°55.959 126.4 -999 232 7.2
2009-08-05 06:24:22 51°13.663 2°55.959 126.4 -999 336 7.2
2009-08-05 06:24:27 51°13.663 2°55.959 126.4 -999 167 -999
2009-08-05 06:24:32 51°13.663 2°55.959 126.4 -999 351 7.1
2009-08-05 06:24:37 51°13.664 2°55.959 126.4 -999 11 7.1
2009-08-05 06:24:42 51°13.663 2°55.959 126.4 -999 198 7.1
2009-08-05 06:24:47 51°13.663 2°55.959 126.4 -999 55 -999
2009-08-05 06:24:52 51°13.663 2°55.959 126.4 -999 51 7.1
2009-08-05 06:24:56 51°13.663 2°55.959 126.5 -999 16 7.1
2009-08-05 06:25:02 51°13.663 2°55.959 126.5 -999 327 7.1
2009-08-05 06:25:07 51°13.663 2°55.959 126.5 -999 180 7.1
2009-08-05 06:25:11 51°13.663 2°55.959 126.5 -999 45 7.2
2009-08-05 06:25:17 51°13.663 2°55.959 126.5 -999 31 5.4
2009-08-05 06:25:22 51°13.663 2°55.959 126.5 -999 334 7.1
2009-08-05 06:25:27 51°13.663 2°55.959 126.5 -999 347 7.1
2009-08-05 06:25:32 51°13.664 2°55.959 126.5 -999 23 5.4
2009-08-05 06:25:36 51°13.664 2°55.959 126.6 -999 137 7.1
2009-08-05 06:25:42 51°13.664 2°55.959 126.6 -999 31 7.1
2009-08-05 06:25:47 51°13.664 2°55.959 126.6 -999 24 7.1
2009-08-05 06:25:52 51°13.664 2°55.959 126.6 -999 77 7
2009-08-05 06:25:56 51°13.664 2°55.959 126.6 -999 104 7
2009-08-05 06:26:02 51°13.664 2°55.96 126.6 -999 10 7.1
2009-08-05 06:26:07 51°13.664 2°55.96 126.6 -999 295 7.1
2009-08-05 06:26:12 51°13.664 2°55.96 126.6 -999 302 7
2009-08-05 06:26:16 51°13.664 2°55.96 126.6 -999 101 7
2009-08-05 06:26:22 51°13.663 2°55.96 126.7 -999 104 7
2009-08-05 06:26:27 51°13.664 2°55.96 126.7 -999 49 7
2009-08-05 06:26:32 51°13.664 2°55.96 126.7 -999 22 7
2009-08-05 06:26:37 51°13.664 2°55.96 126.7 -999 308 7.1
2009-08-05 06:26:42 51°13.664 2°55.96 126.7 -999 7 7.1
2009-08-05 06:26:47 51°13.664 2°55.96 126.7 -999 340 7.1
2009-08-05 06:26:52 51°13.664 2°55.96 126.7 -999 341 7
2009-08-05 06:26:56 51°13.663 2°55.959 126.7 -999 333 7
2009-08-05 06:27:02 51°13.663 2°55.959 126.8 -999 296 7
2009-08-05 06:27:07 51°13.663 2°55.959 126.8 -999 347 5.3
2009-08-05 06:27:12 51°13.663 2°55.959 126.8 -999 326 7.1
2009-08-05 06:27:17 51°13.664 2°55.959 126.8 -999 38 7.1
2009-08-05 06:27:22 51°13.664 2°55.959 126.8 -999 49 7.1
2009-08-05 06:27:27 51°13.663 2°55.959 126.8 -999 5 7.1
2009-08-05 06:27:32 51°13.663 2°55.959 126.8 -999 239 7.1
2009-08-05 06:27:37 51°13.663 2°55.959 126.8 -999 5 7.1
2009-08-05 06:27:42 51°13.663 2°55.959 126.7 -999 69 7.1
2009-08-05 06:27:47 51°13.663 2°55.959 126.7 -999 352 7.1
2009-08-05 06:27:52 51°13.663 2°55.959 126.6 -999 277 7.1
2009-08-05 06:27:56 51°13.663 2°55.959 126.5 -999 339 5.4
2009-08-05 06:28:02 51°13.663 2°55.959 126.4 -999 340 7.1
2009-08-05 06:28:07 51°13.663 2°55.959 126.4 -999 4 7.1
2009-08-05 06:28:12 51°13.663 2°55.959 126.4 -999 41 5.4
2009-08-05 06:28:16 51°13.663 2°55.959 126.3 -999 291 7.1
2009-08-05 06:28:22 51°13.663 2°55.959 126.3 -999 82 7.1
2009-08-05 06:28:27 51°13.663 2°55.959 126.2 -999 118 5.4
2009-08-05 06:28:32 51°13.663 2°55.959 126.2 -999 16 7.1
2009-08-05 06:28:36 51°13.663 2°55.959 126.2 -999 22 7.1
2009-08-05 06:28:42 51°13.663 2°55.959 126.2 -999 325 5.4
2009-08-05 06:28:47 51°13.663 2°55.959 126.2 -999 37 7.1
2009-08-05 06:28:52 51°13.663 2°55.959 126.2 -999 338 7.1
2009-08-05 06:28:56 51°13.663 2°55.959 126.2 -999 271 5.4
2009-08-05 06:29:02 51°13.663 2°55.959 126.2 -999 340 7.1
2009-08-05 06:29:07 51°13.663 2°55.959 126.2 -999 32 7.1
2009-08-05 06:29:12 51°13.663 2°55.959 126.2 -999 8 5.4
2009-08-05 06:29:16 51°13.663 2°55.959 126.2 -999 36 7.2
2009-08-05 06:29:22 51°13.663 2°55.959 126.2 -999 33 7.2
2009-08-05 06:29:27 51°13.663 2°55.959 126.2 -999 127 7.2
2009-08-05 06:29:32 51°13.663 2°55.959 126.2 -999 284 5.4
2009-08-05 06:29:37 51°13.663 2°55.959 126.2 -999 317 7.1
2009-08-05 06:29:42 51°13.663 2°55.959 126.2 -999 75 7.2
2009-08-05 06:29:47 51°13.663 2°55.959 126.2 -999 53 7.1
2009-08-05 06:29:52 51°13.663 2°55.959 126.2 -999 23 7.1
2009-08-05 06:29:56 51°13.663 2°55.959 126.2 -999 22 7.1
2009-08-05 06:30:02 51°13.663 2°55.959 126.2 -999 77 7.1
2009-08-05 06:30:07 51°13.663 2°55.959 126.2 -999 4 7.1
2009-08-05 06:30:12 51°13.663 2°55.959 126.2 -999 323 7.2
2009-08-05 06:30:16 51°13.663 2°55.959 126.2 -999 291 7.2
2009-08-05 06:30:22 51°13.663 2°55.959 126.2 -999 32 7.2
2009-08-05 06:30:27 51°13.663 2°55.959 126.3 -999 56 7.2
2009-08-05 06:30:32 51°13.663 2°55.959 126.4 -999 57 7.1
2009-08-05 06:30:36 51°13.663 2°55.959 126.4 -999 18 7.1
2009-08-05 06:30:42 51°13.663 2°55.959 126.4 -999 2 5.4
2009-08-05 06:30:47 51°13.663 2°55.959 126.4 -999 319 7.1
2009-08-05 06:30:52 51°13.663 2°55.959 126.4 -999 44 7.1
2009-08-05 06:30:57 51°13.663 2°55.959 126.4 -999 359 5.4
2009-08-05 06:31:02 51°13.663 2°55.959 126.4 -999 21 7.1
2009-08-05 06:31:07 51°13.663 2°55.959 126.4 -999 13 7.2
2009-08-05 06:31:12 51°13.663 2°55.959 126.4 -999 346 -999
2009-08-05 06:31:17 51°13.663 2°55.959 126.4 -999 331 7.1
2009-08-05 06:31:22 51°13.663 2°55.959 126.4 -999 79 7.1
2009-08-05 06:31:27 51°13.663 2°55.959 126.4 -999 356 5.4
2009-08-05 06:31:32 51°13.663 2°55.959 126.4 -999 312 7.1
2009-08-05 06:31:37 51°13.663 2°55.959 126.4 -999 356 7.1
2009-08-05 06:31:42 51°13.663 2°55.959 126.4 -999 253 7.1
2009-08-05 06:31:47 51°13.663 2°55.959 126.4 -999 81 7.1
2009-08-05 06:31:51 51°13.663 2°55.959 126.4 -999 43 7.1
2009-08-05 06:31:57 51°13.663 2°55.959 126.4 -999 42 7.1
2009-08-05 06:32:02 51°13.663 2°55.959 126.4 -999 81 7.1
2009-08-05 06:32:07 51°13.663 2°55.959 126.4 -999 124 7.1
2009-08-05 06:32:12 51°13.663 2°55.959 126.4 -999 127 -999
2009-08-05 06:32:16 51°13.663 2°55.959 126.4 -999 9 7.1
2009-08-05 06:32:22 51°13.663 2°55.959 126.4 -999 330 7.1
2009-08-05 06:32:27 51°13.663 2°55.959 126.4 -999 42 7.1
2009-08-05 06:32:32 51°13.663 2°55.959 126.4 -999 130 7.1
2009-08-05 06:32:36 51°13.663 2°55.959 126.4 -999 102 7.1
2009-08-05 06:32:42 51°13.663 2°55.959 126.4 -999 349 7.1
2009-08-05 06:32:47 51°13.663 2°55.959 126.4 -999 349 7.1
2009-08-05 06:32:52 51°13.663 2°55.959 126.4 -999 325 5.4
2009-08-05 06:32:56 51°13.663 2°55.959 126.4 -999 157 7.1
2009-08-05 06:33:02 51°13.663 2°55.959 126.4 -999 8 7.1
2009-08-05 06:33:07 51°13.663 2°55.959 126.4 -999 356 5.4
2009-08-05 06:33:12 51°13.663 2°55.959 126.4 -999 358 7.1
2009-08-05 06:33:16 51°13.663 2°55.959 126.4 -999 3 7.1
2009-08-05 06:33:22 51°13.663 2°55.959 126.4 -999 36 7.1
2009-08-05 06:33:27 51°13.663 2°55.959 126.4 -999 37 7.1
2009-08-05 06:33:32 51°13.663 2°55.959 126.4 -999 50 7.1
2009-08-05 06:33:36 51°13.663 2°55.959 126.4 -999 97 7.1
2009-08-05 06:33:42 51°13.663 2°55.959 126.4 -999 358 7.2
2009-08-05 06:33:47 51°13.663 2°55.959 126.4 -999 237 7.1
2009-08-05 06:33:52 51°13.663 2°55.959 126.5 -999 16 7.2
2009-08-05 06:33:57 51°13.663 2°55.959 126.5 -999 323 7.2
2009-08-05 06:34:02 51°13.663 2°55.959 126.5 -999 295 7.1
2009-08-05 06:34:07 51°13.663 2°55.958 126.5 -999 17 7.1
2009-08-05 06:34:12 51°13.663 2°55.958 126.5 -999 198 -999
2009-08-05 06:34:16 51°13.663 2°55.958 126.5 -999 65 7.2
2009-08-05 06:34:22 51°13.663 2°55.958 126.5 -999 351 7.2
2009-08-05 06:34:27 51°13.663 2°55.958 126.5 -999 351 5.4
2009-08-05 06:34:32 51°13.663 2°55.958 126.5 -999 339 7.2
2009-08-05 06:34:36 51°13.663 2°55.959 126.4 -999 157 7.1
2009-08-05 06:34:42 51°13.663 2°55.959 126.4 -999 1 7.3
2009-08-05 06:34:47 51°13.663 2°55.959 126.4 -999 28 7.1
2009-08-05 06:34:52 51°13.663 2°55.958 126.4 -999 313 7.2
2009-08-05 06:34:56 51°13.663 2°55.958 126.4 -999 294 7.2
2009-08-05 06:35:02 51°13.663 2°55.958 126.4 -999 5 7.2
2009-08-05 06:35:07 51°13.663 2°55.958 126.4 -999 24 7.2
2009-08-05 06:35:12 51°13.663 2°55.958 126.4 -999 225 5.4
2009-08-05 06:35:16 51°13.663 2°55.958 126.4 -999 4 7.2
2009-08-05 06:35:22 51°13.663 2°55.958 126.4 -999 325 7.3
2009-08-05 06:35:27 51°13.663 2°55.958 126.4 -999 354 7.2
2009-08-05 06:35:32 51°13.663 2°55.958 126.4 -999 258 7.2
2009-08-05 06:35:37 51°13.663 2°55.958 126.4 -999 44 7.2
2009-08-05 06:35:42 51°13.663 2°55.958 126.4 -999 350 7.2
2009-08-05 06:35:47 51°13.663 2°55.958 126.4 -999 340 7.2
2009-08-05 06:35:52 51°13.663 2°55.958 126.4 -999 255 7.2
2009-08-05 06:35:56 51°13.663 2°55.959 126.4 -999 33 7.2
2009-08-05 06:36:02 51°13.663 2°55.958 126.4 -999 3 7.2
2009-08-05 06:36:07 51°13.663 2°55.958 126.4 -999 21 7.2
2009-08-05 06:36:11 51°13.663 2°55.958 126.4 -999 357 7.2
2009-08-05 06:36:17 51°13.663 2°55.958 126.4 -999 7 7.2
2009-08-05 06:36:22 51°13.663 2°55.958 126.4 -999 46 7.2
2009-08-05 06:36:27 51°13.663 2°55.959 126.4 -999 48 7.2
2009-08-05 06:36:32 51°13.663 2°55.959 126.4 -999 129 7.1
2009-08-05 06:36:37 51°13.663 2°55.959 126.4 -999 142 7.1
2009-08-05 06:36:42 51°13.663 2°55.959 126.4 -999 148 5.4
2009-08-05 06:36:47 51°13.663 2°55.959 126.5 -999 8 7.2
2009-08-05 06:36:52 51°13.663 2°55.959 126.6 -999 291 7.1
2009-08-05 06:36:56 51°13.663 2°55.959 126.7 0.1 319 7.1
2009-08-05 06:37:02 51°13.663 2°55.959 126.7 0.1 339 5.4
2009-08-05 06:37:07 51°13.663 2°55.959 126.7 -999 253 7.2
2009-08-05 06:37:12 51°13.663 2°55.959 126.5 -999 81 7.2
2009-08-05 06:37:16 51°13.663 2°55.959 126.4 -999 133 7.1
2009-08-05 06:37:22 51°13.662 2°55.959 126.4 -999 67 7.1
2009-08-05 06:37:27 51°13.662 2°55.959 126.2 -999 237 7.1
2009-08-05 06:37:32 51°13.662 2°55.959 126.2 -999 9 7.2
2009-08-05 06:37:36 51°13.662 2°55.959 126.2 -999 273 7.1
2009-08-05 06:37:42 51°13.662 2°55.959 126.2 -999 4 7.1
2009-08-05 06:37:47 51°13.662 2°55.959 126.2 -999 256 7.2
2009-08-05 06:37:52 51°13.662 2°55.959 126.2 -999 5 7.2
2009-08-05 06:37:56 51°13.662 2°55.959 126.2 -999 355 7.2
2009-08-05 06:38:02 51°13.662 2°55.959 126.2 -999 355 7.2
2009-08-05 06:38:07 51°13.662 2°55.959 126.2 -999 35 7.2
2009-08-05 06:38:12 51°13.662 2°55.959 126.2 -999 121 7.2
2009-08-05 06:38:16 51°13.662 2°55.959 126.2 -999 356 5.4
2009-08-05 06:38:22 51°13.662 2°55.959 126.2 -999 358 7.1
2009-08-05 06:38:27 51°13.662 2°55.959 126.2 -999 250 5.4
2009-08-05 06:38:32 51°13.663 2°55.959 126.2 -999 14 7.1
2009-08-05 06:38:36 51°13.663 2°55.959 126.2 -999 351 7.1
2009-08-05 06:38:42 51°13.663 2°55.959 126.2 -999 354 7.1
2009-08-05 06:38:47 51°13.663 2°55.959 126.2 -999 359 7.2
2009-08-05 06:38:52 51°13.663 2°55.959 126.3 -999 90 5.4
2009-08-05 06:38:57 51°13.663 2°55.959 126.3 -999 229 7.2
2009-08-05 06:39:02 51°13.663 2°55.959 126.3 -999 30 7.2
2009-08-05 06:39:07 51°13.663 2°55.959 126.4 -999 9 5.4
2009-08-05 06:39:12 51°13.663 2°55.959 126.4 -999 300 7.2
2009-08-05 06:39:16 51°13.663 2°55.959 126.4 -999 11 7.2
2009-08-05 06:39:22 51°13.663 2°55.959 126.4 -999 224 -999
2009-08-05 06:39:27 51°13.663 2°55.959 126.4 -999 350 7.2
2009-08-05 06:39:32 51°13.663 2°55.959 126.4 -999 346 7.2
2009-08-05 06:39:37 51°13.663 2°55.959 126.4 -999 30 7.3
2009-08-05 06:39:42 51°13.663 2°55.959 126.4 -999 36 5.4
2009-08-05 06:39:47 51°13.663 2°55.959 126.4 -999 224 7.1
2009-08-05 06:39:52 51°13.664 2°55.959 126.4 -999 140 7.1
2009-08-05 06:39:56 51°13.664 2°55.959 126.4 -999 44 7.1
2009-08-05 06:40:02 51°13.664 2°55.959 126.4 -999 105 7.2
2009-08-05 06:40:07 51°13.664 2°55.959 126.3 -999 37 5.4
2009-08-05 06:40:12 51°13.664 2°55.959 126.1 -999 218 7.1
2009-08-05 06:40:16 51°13.664 2°55.959 126.1 -999 17 7.1
2009-08-05 06:40:22 51°13.664 2°55.959 126.1 -999 249 5.4
2009-08-05 06:40:27 51°13.664 2°55.959 126.1 -999 42 7.1
2009-08-05 06:40:32 51°13.663 2°55.959 126.1 -999 104 7.1
2009-08-05 06:40:37 51°13.664 2°55.959 126.1 -999 65 7.1
2009-08-05 06:40:46 51°13.664 2°55.959 126.2 -999 48 7.1
2009-08-05 06:40:50 51°13.664 2°55.959 126.2 -999 236 7.1
2009-08-05 06:40:56 51°13.663 2°55.959 126.3 -999 40 7.1
2009-08-05 06:41:00 51°13.663 2°55.959 126.4 -999 4 7.1
2009-08-05 06:41:05 51°13.663 2°55.959 126.4 -999 8 7.1
2009-08-05 06:41:10 51°13.663 2°55.959 126.5 -999 11 7.1
2009-08-05 06:41:15 51°13.663 2°55.959 126.5 -999 253 7.1
2009-08-05 06:41:20 51°13.663 2°55.959 126.6 -999 204 7.1
2009-08-05 06:41:25 51°13.663 2°55.959 126.7 -999 350 -999
2009-08-05 06:41:30 51°13.663 2°55.959 126.9 -999 71 7.1
2009-08-05 06:41:35 51°13.663 2°55.959 127 -999 55 7.1
2009-08-05 06:41:39 51°13.663 2°55.959 127.1 -999 5 7.1
2009-08-05 06:41:44 51°13.663 2°55.959 127.1 -999 343 7.1
2009-08-05 06:41:49 51°13.663 2°55.959 127.2 -999 4 7.1
2009-08-05 06:41:54 51°13.664 2°55.959 127.2 -999 37 7.1
2009-08-05 06:41:59 51°13.664 2°55.959 127.2 -999 48 7.1
2009-08-05 06:42:04 51°13.664 2°55.959 127.2 -999 25 7.1
2009-08-05 06:42:09 51°13.665 2°55.959 127.2 -999 25 7.1
2009-08-05 06:42:14 51°13.665 2°55.959 127.2 -999 313 7.1
2009-08-05 06:42:19 51°13.665 2°55.959 127.2 -999 356 7.1
2009-08-05 06:42:23 51°13.664 2°55.959 127.2 -999 351 7.1
2009-08-05 06:42:28 51°13.663 2°55.959 127.2 -999 324 5.4
2009-08-05 06:42:33 51°13.663 2°55.959 127.2 -999 10 5.4
2009-08-05 06:42:38 51°13.663 2°55.959 127.2 -999 -999 7.1
2009-08-05 06:42:43 51°13.662 2°55.959 127.2 -999 7 7.1
2009-08-05 06:42:48 51°13.662 2°55.96 127.2 -999 7 7.1
2009-08-05 06:42:52 51°13.662 2°55.96 127.2 -999 337 7.1
2009-08-05 06:42:57 51°13.663 2°55.959 127.2 -999 261 7.1
2009-08-05 06:43:02 51°13.663 2°55.959 127.2 -999 5 5.4
2009-08-05 06:43:07 51°13.663 2°55.959 127.2 -999 266 5.4
2009-08-05 06:43:12 51°13.663 2°55.959 127.2 -999 337 7.1
2009-08-05 06:43:17 51°13.664 2°55.959 127.2 -999 17 7.1
2009-08-05 06:43:22 51°13.664 2°55.959 127.1 -999 265 7.1
2009-08-05 06:43:27 51°13.664 2°55.959 127.1 -999 350 7.1
2009-08-05 06:43:32 51°13.663 2°55.959 127.1 -999 308 5.4
2009-08-05 06:43:36 51°13.663 2°55.959 127 -999 279 7.1
2009-08-05 06:43:42 51°13.663 2°55.959 127 -999 42 7.2
2009-08-05 06:43:47 51°13.663 2°55.959 127 -999 50 5.4
2009-08-05 06:43:52 51°13.663 2°55.959 127 -999 13 7.2
2009-08-05 06:43:56 51°13.663 2°55.959 127 -999 299 7.2
2009-08-05 06:44:02 51°13.663 2°55.959 127 -999 258 7.2
2009-08-05 06:44:07 51°13.664 2°55.959 127 -999 16 -999
2009-08-05 06:44:12 51°13.663 2°55.959 127 -999 355 7.2
2009-08-05 06:44:16 51°13.663 2°55.959 127 -999 220 7.2
2009-08-05 06:44:22 51°13.663 2°55.959 127 -999 254 7.2
2009-08-05 06:44:27 51°13.663 2°55.959 127 -999 206 7.2
2009-08-05 06:44:32 51°13.663 2°55.959 127 -999 208 7.3
2009-08-05 06:44:37 51°13.663 2°55.959 127 -999 78 7.2
2009-08-05 06:44:42 51°13.663 2°55.959 127 -999 129 7.2
2009-08-05 06:44:47 51°13.663 2°55.959 126.9 -999 5 7.3
2009-08-05 06:44:52 51°13.663 2°55.959 126.9 -999 13 7.3
2009-08-05 06:44:56 51°13.663 2°55.959 126.8 -999 32 7.1
2009-08-05 06:45:02 51°13.663 2°55.959 126.8 -999 21 7.2
2009-08-05 06:45:07 51°13.663 2°55.959 126.8 -999 321 7.2
2009-08-05 06:45:12 51°13.663 2°55.959 126.8 -999 333 7.2
2009-08-05 06:45:17 51°13.663 2°55.959 126.8 -999 356 7.2
2009-08-05 06:45:22 51°13.663 2°55.959 126.8 -999 257 7.2
2009-08-05 06:45:27 51°13.663 2°55.959 126.7 -999 245 7.2
2009-08-05 06:45:32 51°13.663 2°55.959 126.7 -999 342 7.2
2009-08-05 06:45:36 51°13.663 2°55.959 126.7 -999 39 7.1
2009-08-05 06:45:42 51°13.663 2°55.959 126.7 -999 179 7.2
2009-08-05 06:45:47 51°13.663 2°55.959 126.6 -999 118 5.4
2009-08-05 06:45:52 51°13.663 2°55.959 126.6 -999 46 7.2
2009-08-05 06:45:56 51°13.663 2°55.959 126.6 -999 170 7.2
2009-08-05 06:46:02 51°13.663 2°55.959 126.6 -999 16 5.4
2009-08-05 06:46:07 51°13.663 2°55.959 126.6 -999 91 7.2
2009-08-05 06:46:12 51°13.663 2°55.959 126.6 -999 6 7.2
2009-08-05 06:46:16 51°13.663 2°55.959 126.6 -999 344 5.4
2009-08-05 06:46:22 51°13.663 2°55.959 126.6 -999 8 7.1
2009-08-05 06:46:27 51°13.663 2°55.959 126.6 -999 155 7.1
2009-08-05 06:46:32 51°13.663 2°55.959 126.6 -999 101 5.4
2009-08-05 06:46:36 51°13.663 2°55.959 126.6 -999 52 7.1
2009-08-05 06:46:42 51°13.663 2°55.959 126.7 -999 136 7.1
2009-08-05 06:46:47 51°13.663 2°55.959 126.8 -999 152 7.1
2009-08-05 06:46:52 51°13.663 2°55.959 126.9 -999 37 7.1
2009-08-05 06:46:56 51°13.663 2°55.959 126.9 -999 31 7.1
2009-08-05 06:47:02 51°13.663 2°55.959 126.9 -999 89 7.1
2009-08-05 06:47:07 51°13.663 2°55.959 127 -999 124 7.1
2009-08-05 06:47:12 51°13.663 2°55.959 127 -999 29 7.1
2009-08-05 06:47:17 51°13.663 2°55.959 127 -999 4 7.1
2009-08-05 06:47:22 51°13.663 2°55.959 127.1 -999 -999 5.4
2009-08-05 06:47:27 51°13.663 2°55.959 127.1 -999 17 7.1
2009-08-05 06:47:32 51°13.663 2°55.959 127.1 -999 9 7.1
2009-08-05 06:47:37 51°13.663 2°55.959 127.1 -999 174 7.1
2009-08-05 06:47:42 51°13.663 2°55.959 127.1 -999 13 7.2
2009-08-05 06:47:47 51°13.663 2°55.959 127.1 -999 50 7.1
2009-08-05 06:47:51 51°13.663 2°55.959 127.1 -999 54 7.1
2009-08-05 06:47:56 51°13.663 2°55.959 127.1 -999 295 5.4
2009-08-05 06:48:02 51°13.663 2°55.959 127.1 -999 85 7.1
2009-08-05 06:48:07 51°13.663 2°55.959 127.1 -999 276 7.2
2009-08-05 06:48:12 51°13.663 2°55.959 127.1 -999 337 7.2
2009-08-05 06:48:16 51°13.663 2°55.959 127.1 -999 358 5.4
2009-08-05 06:48:22 51°13.663 2°55.959 127.1 -999 128 7.1
2009-08-05 06:48:27 51°13.663 2°55.959 127.1 -999 16 7.2
2009-08-05 06:48:32 51°13.663 2°55.959 127.1 -999 184 5.4
2009-08-05 06:48:36 51°13.663 2°55.959 127.1 -999 138 7.2
2009-08-05 06:48:42 51°13.663 2°55.959 127.1 -999 227 7.2
2009-08-05 06:48:47 51°13.663 2°55.959 127.1 -999 224 7.2
2009-08-05 06:48:52 51°13.663 2°55.959 127.1 -999 134 5.4
2009-08-05 06:48:56 51°13.663 2°55.959 127.1 -999 252 7.2
2009-08-05 06:49:02 51°13.663 2°55.959 127.1 -999 89 7.3
2009-08-05 06:49:07 51°13.663 2°55.959 127.1 -999 181 5.4
2009-08-05 06:49:12 51°13.663 2°55.959 127.1 -999 55 7.2
2009-08-05 06:49:17 51°13.663 2°55.959 127.1 -999 222 7.1
2009-08-05 06:49:22 51°13.663 2°55.959 127.2 -999 92 5.4
2009-08-05 06:49:27 51°13.663 2°55.959 127.2 -999 15 7.1
2009-08-05 06:49:32 51°13.663 2°55.959 127.2 -999 36 7.1
2009-08-05 06:49:36 51°13.663 2°55.959 127.2 -999 150 7.1
2009-08-05 06:49:42 51°13.663 2°55.959 127.3 -999 59 7.1
2009-08-05 06:49:47 51°13.663 2°55.959 127.3 -999 5 7.1
2009-08-05 06:49:52 51°13.663 2°55.959 127.4 -999 195 7.2
2009-08-05 06:49:57 51°13.663 2°55.959 127.4 -999 69 7.2
2009-08-05 06:50:02 51°13.663 2°55.959 127.4 -999 24 5.4
2009-08-05 06:50:07 51°13.663 2°55.959 127.4 -999 160 7.1
2009-08-05 06:50:12 51°13.663 2°55.959 127.4 -999 171 7.1
2009-08-05 06:50:16 51°13.663 2°55.959 127.4 -999 31 7.2
2009-08-05 06:50:22 51°13.663 2°55.959 127.4 -999 105 7.2
2009-08-05 06:50:27 51°13.663 2°55.96 127.4 -999 88 7.2
2009-08-05 06:50:32 51°13.663 2°55.96 127.4 -999 35 7.2
2009-08-05 06:50:37 51°13.663 2°55.96 127.4 -999 348 7.2
2009-08-05 06:50:42 51°13.663 2°55.959 127.3 -999 10 7.2
2009-08-05 06:50:47 51°13.663 2°55.959 127.3 -999 271 7.2
2009-08-05 06:50:52 51°13.662 2°55.959 127.3 -999 343 7.2
2009-08-05 06:50:56 51°13.662 2°55.959 127.3 -999 16 7.2
2009-08-05 06:51:02 51°13.662 2°55.959 127.2 -999 351 7.2
2009-08-05 06:51:07 51°13.662 2°55.96 127.2 -999 262 7.2
2009-08-05 06:51:12 51°13.662 2°55.96 127.1 -999 351 7.2
2009-08-05 06:51:16 51°13.662 2°55.96 127.1 -999 3 7.2
2009-08-05 06:51:22 51°13.663 2°55.96 127.1 -999 353 7.2
2009-08-05 06:51:27 51°13.663 2°55.96 127.1 -999 84 7.2
2009-08-05 06:51:32 51°13.663 2°55.96 127.1 -999 15 7.2
2009-08-05 06:51:36 51°13.663 2°55.96 127.1 -999 51 7.2
2009-08-05 06:51:42 51°13.663 2°55.96 127.1 -999 147 7.2
2009-08-05 06:51:47 51°13.663 2°55.96 127.1 -999 341 -999
2009-08-05 06:51:52 51°13.663 2°55.96 127.1 -999 356 7.3
2009-08-05 06:51:56 51°13.663 2°55.96 127.1 -999 21 -999
2009-08-05 06:52:02 51°13.663 2°55.96 127.1 -999 348 7.3
2009-08-05 06:52:07 51°13.663 2°55.96 127.1 -999 117 7.3
2009-08-05 06:52:12 51°13.663 2°55.96 127.1 -999 1 -999
2009-08-05 06:52:16 51°13.663 2°55.96 127.1 -999 43 7.3
2009-08-05 06:52:22 51°13.663 2°55.96 127.1 -999 19 7.3
2009-08-05 06:52:27 51°13.663 2°55.96 127.1 -999 31 5.5
2009-08-05 06:52:32 51°13.663 2°55.96 127.1 -999 73 7.2
2009-08-05 06:52:37 51°13.663 2°55.96 127.1 -999 284 7.2
2009-08-05 06:52:42 51°13.663 2°55.96 127.2 -999 143 5.4
2009-08-05 06:52:47 51°13.663 2°55.96 127.2 -999 128 7.2
2009-08-05 06:52:52 51°13.663 2°55.96 127.2 -999 69 7.2
2009-08-05 06:52:56 51°13.663 2°55.96 127.3 -999 40 7.2
2009-08-05 06:53:02 51°13.663 2°55.96 127.3 -999 72 7.2
2009-08-05 06:53:07 51°13.663 2°55.96 127.3 -999 50 7.2
2009-08-05 06:53:12 51°13.663 2°55.96 127.3 -999 312 7.2
2009-08-05 06:53:16 51°13.663 2°55.96 127.3 -999 299 7.2
2009-08-05 06:53:22 51°13.663 2°55.96 127.2 -999 243 5.4
2009-08-05 06:53:27 51°13.663 2°55.96 127.1 -999 24 7.2
2009-08-05 06:53:32 51°13.663 2°55.96 127.1 -999 235 7.3
2009-08-05 06:53:36 51°13.663 2°55.96 127.1 -999 311 7.3
2009-08-05 06:53:42 51°13.663 2°55.959 127.1 -999 325 -999
2009-08-05 06:53:47 51°13.663 2°55.959 127.1 -999 322 7.3
2009-08-05 06:53:52 51°13.663 2°55.959 127 -999 132 7.3
2009-08-05 06:53:56 51°13.663 2°55.959 127 -999 61 7.3
2009-08-05 06:54:02 51°13.664 2°55.959 126.9 -999 288 7.3
2009-08-05 06:54:07 51°13.664 2°55.959 126.8 -999 210 7.3
2009-08-05 06:54:12 51°13.664 2°55.959 126.7 -999 183 5.5
2009-08-05 06:54:16 51°13.664 2°55.959 126.6 -999 36 7.3
2009-08-05 06:54:22 51°13.663 2°55.959 126.6 -999 163 7.3
2009-08-05 06:54:27 51°13.663 2°55.959 126.5 -999 6 7.3
2009-08-05 06:54:32 51°13.663 2°55.959 126.5 -999 13 7.3
2009-08-05 06:54:36 51°13.663 2°55.959 126.5 -999 234 7.3
2009-08-05 06:54:42 51°13.663 2°55.959 126.5 -999 333 5.5
2009-08-05 06:54:47 51°13.663 2°55.959 126.5 -999 39 7.3
2009-08-05 06:54:52 51°13.663 2°55.959 126.5 -999 15 7.3
2009-08-05 06:54:57 51°13.663 2°55.959 126.5 -999 18 7.3
2009-08-05 06:55:02 51°13.663 2°55.959 126.5 -999 30 7.3
2009-08-05 06:55:07 51°13.663 2°55.959 126.5 -999 305 7.3
2009-08-05 06:55:12 51°13.663 2°55.959 126.5 -999 235 5.4
2009-08-05 06:55:16 51°13.663 2°55.958 126.5 -999 7 7.3
2009-08-05 06:55:22 51°13.663 2°55.959 126.5 -999 50 7.3
2009-08-05 06:55:27 51°13.663 2°55.959 126.5 -999 351 7.3
2009-08-05 06:55:32 51°13.663 2°55.959 126.6 -999 215 5.5
2009-08-05 06:55:36 51°13.663 2°55.959 126.6 -999 64 7.3
2009-08-05 06:55:42 51°13.663 2°55.959 126.6 -999 310 7.3
2009-08-05 06:55:47 51°13.663 2°55.959 126.6 -999 352 7.2
2009-08-05 06:55:52 51°13.663 2°55.959 126.6 -999 24 7.2
2009-08-05 06:55:56 51°13.663 2°55.959 126.7 -999 283 5.4
2009-08-05 06:56:02 51°13.663 2°55.959 126.7 -999 250 7.3
2009-08-05 06:56:07 51°13.663 2°55.959 126.7 -999 339 7.3
2009-08-05 06:56:12 51°13.663 2°55.959 126.6 -999 353 5.4
2009-08-05 06:56:16 51°13.663 2°55.959 126.6 -999 295 7.3
2009-08-05 06:56:22 51°13.663 2°55.959 126.5 -999 65 7.4
2009-08-05 06:56:27 51°13.663 2°55.959 126.5 -999 135 7.3
2009-08-05 06:56:32 51°13.663 2°55.959 126.5 -999 161 7.2
2009-08-05 06:56:36 51°13.663 2°55.959 126.5 -999 219 7.3
2009-08-05 06:56:42 51°13.663 2°55.959 126.5 -999 352 7.3
2009-08-05 06:56:47 51°13.663 2°55.959 126.5 -999 24 7.3
2009-08-05 06:56:52 51°13.663 2°55.959 126.5 -999 134 7.2
2009-08-05 06:56:56 51°13.663 2°55.959 126.5 -999 48 7.2
2009-08-05 06:57:02 51°13.663 2°55.959 126.5 -999 210 7.2
2009-08-05 06:57:07 51°13.663 2°55.959 126.4 -999 22 7.2
2009-08-05 06:57:12 51°13.663 2°55.959 126.4 -999 275 7.3
2009-08-05 06:57:16 51°13.663 2°55.959 126.3 -999 290 7.2
2009-08-05 06:57:22 51°13.663 2°55.959 126.2 -999 353 7.2
2009-08-05 06:57:27 51°13.663 2°55.959 126.1 -999 337 7.3
2009-08-05 06:57:32 51°13.663 2°55.959 126 -999 6 7.3
2009-08-05 06:57:36 51°13.663 2°55.959 125.9 -999 126 7.3
2009-08-05 06:57:42 51°13.663 2°55.959 125.9 -999 172 7.2
2009-08-05 06:57:47 51°13.663 2°55.959 125.9 -999 167 7.2
2009-08-05 06:57:52 51°13.663 2°55.959 125.9 -999 155 7.2
2009-08-05 06:57:56 51°13.663 2°55.959 125.9 -999 323 7.2
2009-08-05 06:58:02 51°13.663 2°55.959 126.1 -999 19 7.2
2009-08-05 06:58:07 51°13.663 2°55.959 126.1 -999 235 5.5
2009-08-05 06:58:12 51°13.663 2°55.959 126.2 -999 281 7.3
2009-08-05 06:58:16 51°13.663 2°55.959 126.2 -999 36 7.3
2009-08-05 06:58:22 51°13.663 2°55.959 126.2 -999 307 5.5
2009-08-05 06:58:27 51°13.662 2°55.959 126.2 -999 221 7.3
2009-08-05 06:58:32 51°13.662 2°55.959 126.2 -999 47 7.3
2009-08-05 06:58:36 51°13.662 2°55.959 126.2 -999 270 7.2
2009-08-05 06:58:42 51°13.662 2°55.959 126.2 -999 8 7.2
2009-08-05 06:58:47 51°13.662 2°55.959 126.1 -999 6 7.4
2009-08-05 06:58:52 51°13.662 2°55.959 126 -999 54 5.5
2009-08-05 06:58:56 51°13.662 2°55.959 126 -999 124 7.2
2009-08-05 06:59:02 51°13.662 2°55.959 126 -999 135 7.2
2009-08-05 06:59:07 51°13.662 2°55.959 126 -999 160 7.2
2009-08-05 06:59:12 51°13.662 2°55.959 126 -999 307 7.3
2009-08-05 06:59:16 51°13.663 2°55.959 126 -999 13 7.3
2009-08-05 06:59:22 51°13.663 2°55.959 126 -999 318 7.2
2009-08-05 06:59:27 51°13.663 2°55.959 126.1 -999 342 7.2
2009-08-05 06:59:32 51°13.663 2°55.959 126.2 -999 353 -999
2009-08-05 06:59:37 51°13.663 2°55.959 126.2 -999 12 7.3
2009-08-05 06:59:42 51°13.663 2°55.959 126.2 -999 26 7.3
2009-08-05 06:59:47 51°13.663 2°55.959 126.2 -999 202 5.5
2009-08-05 06:59:52 51°13.663 2°55.959 126.2 -999 82 7.2
2009-08-05 06:59:56 51°13.663 2°55.959 126.2 -999 87 7.2
2009-08-05 07:00:02 51°13.663 2°55.959 126.1 -999 271 7.2
2009-08-05 07:00:07 51°13.663 2°55.959 126.1 -999 338 7.3
2009-08-05 07:00:12 51°13.663 2°55.959 126.1 -999 316 7.3
2009-08-05 07:00:16 51°13.663 2°55.959 126.1 -999 56 7.3
2009-08-05 07:00:22 51°13.663 2°55.959 126 -999 189 5.4
2009-08-05 07:00:27 51°13.663 2°55.959 125.9 -999 202 7.2
2009-08-05 07:00:32 51°13.663 2°55.959 125.9 -999 47 7.4
2009-08-05 07:00:37 51°13.663 2°55.959 126 -999 216 7.3
2009-08-05 07:00:42 51°13.663 2°55.959 126 -999 19 7.2
2009-08-05 07:00:46 51°13.663 2°55.959 126.1 -999 273 7.2
2009-08-05 07:00:52 51°13.663 2°55.959 126.1 0.1 20 7.2
2009-08-05 07:00:57 51°13.663 2°55.959 126.1 -999 219 7.3
2009-08-05 07:01:02 51°13.663 2°55.959 126.1 -999 27 7.3
2009-08-05 07:01:07 51°13.663 2°55.959 126 -999 223 7.2
2009-08-05 07:01:12 51°13.664 2°55.959 126 -999 102 7.3
2009-08-05 07:01:16 51°13.664 2°55.959 126 -999 85 5.4
2009-08-05 07:01:22 51°13.664 2°55.959 126 -999 254 7.2
2009-08-05 07:01:27 51°13.664 2°55.959 126 -999 30 7.2
2009-08-05 07:01:32 51°13.664 2°55.959 126.1 -999 158 7.2
2009-08-05 07:01:36 51°13.664 2°55.959 126.2 -999 91 5.4
2009-08-05 07:01:42 51°13.663 2°55.959 126.3 -999 132 7.2
2009-08-05 07:01:47 51°13.663 2°55.959 126.4 -999 96 7.3
2009-08-05 07:01:52 51°13.663 2°55.959 126.6 0.1 106 7.2
2009-08-05 07:01:56 51°13.662 2°55.959 127.1 0.1 102 5.4
2009-08-05 07:02:02 51°13.662 2°55.958 127.6 0.1 138 -999
2009-08-05 07:02:07 51°13.662 2°55.959 128.1 -999 135 5.4
2009-08-05 07:02:12 51°13.662 2°55.959 128.7 -999 227 7.2
2009-08-05 07:02:16 51°13.662 2°55.959 129 -999 314 7.3
2009-08-05 07:02:22 51°13.663 2°55.959 129 0.1 324 5.5
2009-08-05 07:02:27 51°13.663 2°55.959 129 0.1 326 7.3
2009-08-05 07:02:32 51°13.663 2°55.959 128.7 0.1 320 7.2
2009-08-05 07:02:36 51°13.663 2°55.959 128.2 0.1 9 7.3
2009-08-05 07:02:42 51°13.664 2°55.959 127.5 -999 353 5.5
2009-08-05 07:02:47 51°13.664 2°55.959 127.1 -999 103 7.2
2009-08-05 07:02:52 51°13.664 2°55.959 127.1 0.1 145 7.2
2009-08-05 07:02:56 51°13.664 2°55.959 127.3 0.1 122 7.2
2009-08-05 07:03:02 51°13.663 2°55.959 127.8 0.1 145 7.2
2009-08-05 07:03:07 51°13.663 2°55.96 128.3 0.1 170 7.3
2009-08-05 07:03:12 51°13.663 2°55.96 129 0.1 148 5.5
2009-08-05 07:03:16 51°13.663 2°55.96 129.3 -999 280 7.3
2009-08-05 07:03:22 51°13.663 2°55.959 129.5 -999 344 7.3
2009-08-05 07:03:27 51°13.663 2°55.959 129.6 -999 312 7.3
2009-08-05 07:03:32 51°13.663 2°55.959 129.6 -999 31 7.3
2009-08-05 07:03:36 51°13.663 2°55.959 129.6 -999 17 7.3
2009-08-05 07:03:42 51°13.663 2°55.959 129.6 -999 37 5.5
2009-08-05 07:03:47 51°13.663 2°55.959 129.6 -999 32 7.3
2009-08-05 07:03:52 51°13.663 2°55.96 129.5 -999 88 7.3
2009-08-05 07:03:56 51°13.663 2°55.96 129.5 -999 100 7.3
2009-08-05 07:04:02 51°13.663 2°55.96 129.4 -999 55 7.3
2009-08-05 07:04:07 51°13.663 2°55.96 129.3 -999 14 7.3
2009-08-05 07:04:12 51°13.663 2°55.96 129.3 -999 50 7.3
2009-08-05 07:04:16 51°13.663 2°55.96 129.3 -999 22 7.3
2009-08-05 07:04:22 51°13.663 2°55.96 129.1 -999 226 7.3
2009-08-05 07:04:27 51°13.663 2°55.96 129.1 -999 12 7.3
2009-08-05 07:04:32 51°13.663 2°55.96 129.1 -999 13 7.3
2009-08-05 07:04:36 51°13.663 2°55.96 129.1 -999 322 5.5
2009-08-05 07:04:42 51°13.663 2°55.96 129.1 -999 347 7.3
2009-08-05 07:04:47 51°13.663 2°55.96 129.1 -999 336 7.3
2009-08-05 07:04:52 51°13.663 2°55.96 129.1 -999 323 7.3
2009-08-05 07:04:57 51°13.663 2°55.96 129.1 -999 344 5.5
2009-08-05 07:05:02 51°13.663 2°55.96 129.1 -999 118 7.3
2009-08-05 07:05:07 51°13.663 2°55.96 129.1 -999 160 7.3
2009-08-05 07:05:12 51°13.663 2°55.96 129.1 -999 154 7.3
2009-08-05 07:05:17 51°13.663 2°55.96 129 -999 13 7.3
2009-08-05 07:05:22 51°13.663 2°55.96 129 -999 9 7.3
2009-08-05 07:05:27 51°13.663 2°55.96 129 -999 33 7.3
2009-08-05 07:05:32 51°13.663 2°55.96 129 -999 43 7.3
2009-08-05 07:05:36 51°13.663 2°55.96 128.7 -999 57 5.5
2009-08-05 07:05:42 51°13.662 2°55.959 128.1 -999 149 7.3
2009-08-05 07:05:47 51°13.662 2°55.959 127.3 -999 162 7.3
2009-08-05 07:05:52 51°13.662 2°55.959 126.6 -999 201 7.3
2009-08-05 07:05:56 51°13.662 2°55.959 126 -999 187 7.3
2009-08-05 07:06:02 51°13.662 2°55.959 125.3 -999 206 7.3
2009-08-05 07:06:07 51°13.662 2°55.959 124.6 -999 200 7.4
2009-08-05 07:06:12 51°13.662 2°55.959 123.9 0.1 185 7.3
2009-08-05 07:06:16 51°13.662 2°55.959 123.4 -999 202 7.3
2009-08-05 07:06:22 51°13.662 2°55.959 122.7 -999 197 7.5
2009-08-05 07:06:27 51°13.662 2°55.959 122.1 0.1 191 7.6
2009-08-05 07:06:32 51°13.662 2°55.959 121.3 -999 191 5.5
2009-08-05 07:06:36 51°13.662 2°55.959 120.7 -999 198 7.4
2009-08-05 07:06:42 51°13.662 2°55.959 120 -999 216 7.6
2009-08-05 07:06:47 51°13.662 2°55.959 119.4 -999 196 7.4
2009-08-05 07:06:52 51°13.662 2°55.959 118.8 -999 192 7.4
2009-08-05 07:06:56 51°13.662 2°55.959 118.2 -999 191 7.5
2009-08-05 07:07:02 51°13.662 2°55.959 117.6 0.1 195 7.3
2009-08-05 07:07:07 51°13.662 2°55.959 117 0.1 195 7.5
2009-08-05 07:07:12 51°13.662 2°55.959 116.4 0.1 205 7.5
2009-08-05 07:07:16 51°13.662 2°55.959 115.9 -999 211 -999
2009-08-05 07:07:22 51°13.662 2°55.959 115.3 -999 207 -999
2009-08-05 07:07:27 51°13.662 2°55.959 114.7 -999 197 7.4
2009-08-05 07:07:32 51°13.662 2°55.959 114 -999 194 7.4
2009-08-05 07:07:36 51°13.662 2°55.959 113.4 -999 209 7.4
2009-08-05 07:07:42 51°13.662 2°55.959 112.8 -999 250 5.5
2009-08-05 07:07:47 51°13.662 2°55.959 112.5 0.2 279 5.5
2009-08-05 07:07:52 51°13.663 2°55.957 112 0.5 292 7.5
2009-08-05 07:07:57 51°13.663 2°55.956 111.9 0.8 287 7.4
2009-08-05 07:08:02 51°13.663 2°55.953 112 1.1 292 7.4
2009-08-05 07:08:07 51°13.664 2°55.95 112.6 1.5 292 7.4
2009-08-05 07:08:12 51°13.665 2°55.947 113.1 1.8 295 7.7
2009-08-05 07:08:17 51°13.666 2°55.942 113.7 2.2 293 -999
2009-08-05 07:08:23 51°13.667 2°55.936 114.1 2.5 295 -999
2009-08-05 07:08:28 51°13.669 2°55.931 114.2 2.6 296 -999
2009-08-05 07:08:34 51°13.671 2°55.925 114.1 2.8 295 -999
2009-08-05 07:08:40 51°13.673 2°55.918 113.5 2.9 296 -999
2009-08-05 07:08:46 51°13.675 2°55.91 113.1 3 294 -999
2009-08-05 07:08:51 51°13.677 2°55.904 112.6 3.1 294 -999
2009-08-05 07:08:55 51°13.678 2°55.899 111.7 3.2 293 -999
2009-08-05 07:09:00 51°13.68 2°55.892 111 3.3 292 -999
2009-08-05 07:09:06 51°13.682 2°55.884 110.2 3.4 291 -999
2009-08-05 07:09:11 51°13.684 2°55.877 109.5 3.5 291 -999
2009-08-05 07:09:15 51°13.685 2°55.871 108.8 3.5 290 -999
2009-08-05 07:09:20 51°13.687 2°55.864 107.5 3.5 289 -999
2009-08-05 07:09:26 51°13.688 2°55.855 106 3.5 288 -999
2009-08-05 07:09:31 51°13.69 2°55.848 104.2 3.5 286 -999
2009-08-05 07:09:35 51°13.691 2°55.842 102.4 3.5 285 -999
2009-08-05 07:09:40 51°13.692 2°55.834 100.4 3.4 284 -999
2009-08-05 07:09:45 51°13.693 2°55.827 98.4 3.3 281 -999
2009-08-05 07:09:51 51°13.694 2°55.819 96.4 3.2 280 -999
2009-08-05 07:09:55 51°13.694 2°55.813 94.3 3.1 277 -999
2009-08-05 07:10:00 51°13.694 2°55.806 92.1 3.1 275 -999
2009-08-05 07:10:06 51°13.695 2°55.799 89.7 3 273 -999
2009-08-05 07:10:11 51°13.695 2°55.792 87.3 2.9 272 -999
2009-08-05 07:10:15 51°13.695 2°55.787 85 2.8 269 -999
2009-08-05 07:10:20 51°13.694 2°55.781 82.7 2.8 267 -999
2009-08-05 07:10:26 51°13.694 2°55.774 80.4 2.7 264 -999
2009-08-05 07:10:30 51°13.693 2°55.769 78.1 2.6 262 -999
2009-08-05 07:10:35 51°13.693 2°55.764 75.9 2.5 260 -999
2009-08-05 07:10:40 51°13.692 2°55.758 73.8 2.4 259 -999
2009-08-05 07:10:46 51°13.691 2°55.752 71.9 2.3 257 -999
2009-08-05 07:10:50 51°13.691 2°55.749 70 2.2 255 -999
2009-08-05 07:10:55 51°13.69 2°55.744 68.8 2.1 254 10.9
2009-08-05 07:11:00 51°13.689 2°55.74 67.6 2 254 11.1
2009-08-05 07:11:05 51°13.688 2°55.737 66.8 1.6 255 10.8
2009-08-05 07:11:10 51°13.688 2°55.734 65.8 0.9 262 10.7
2009-08-05 07:11:15 51°13.688 2°55.734 63.7 0.4 296 10.8
2009-08-05 07:11:19 51°13.689 2°55.734 60 0.4 345 10.9
2009-08-05 07:11:24 51°13.689 2°55.734 53.2 0.5 8 11
2009-08-05 07:11:29 51°13.69 2°55.734 48.9 0.5 16 11.1
2009-08-05 07:11:34 51°13.691 2°55.734 44.2 0.7 19 11.2
2009-08-05 07:11:39 51°13.692 2°55.735 39.9 0.8 22 11.2
2009-08-05 07:11:44 51°13.693 2°55.736 36.1 0.9 19 -999
2009-08-05 07:11:48 51°13.694 2°55.736 31.8 1 21 11.3
2009-08-05 07:11:53 51°13.696 2°55.737 28.3 1.1 17 11.6
2009-08-05 07:11:58 51°13.697 2°55.738 24.8 1.2 16 -999
2009-08-05 07:12:04 51°13.699 2°55.739 21.2 1.4 13 11.7
2009-08-05 07:12:09 51°13.701 2°55.739 16.8 1.5 9 11.6
2009-08-05 07:12:14 51°13.704 2°55.739 13.8 1.6 6 11.1
2009-08-05 07:12:19 51°13.706 2°55.74 10 1.6 3 11.1
2009-08-05 07:12:24 51°13.708 2°55.739 6.3 1.7 359 11
2009-08-05 07:12:28 51°13.71 2°55.739 3.2 1.8 358 11
2009-08-05 07:12:33 51°13.713 2°55.739 359.4 2 352 11
2009-08-05 07:12:38 51°13.716 2°55.738 355 2.1 348 10.8
2009-08-05 07:12:43 51°13.719 2°55.736 350.7 2.2 344 10.7
2009-08-05 07:12:48 51°13.722 2°55.735 346 2.3 341 10.4
2009-08-05 07:12:53 51°13.725 2°55.732 340.2 2.5 336 10.8
2009-08-05 07:12:58 51°13.728 2°55.729 335.7 2.9 333 -999
2009-08-05 07:13:04 51°13.733 2°55.725 331.7 3.2 331 -999
2009-08-05 07:13:09 51°13.737 2°55.721 329.7 3.6 329 -999
2009-08-05 07:13:15 51°13.743 2°55.716 328.9 3.9 328 11
2009-08-05 07:13:20 51°13.748 2°55.711 328.8 4.2 329 10.9
2009-08-05 07:13:24 51°13.752 2°55.707 329.1 4.4 329 10.2
2009-08-05 07:13:29 51°13.758 2°55.701 329.4 4.7 329 10.4
2009-08-05 07:13:34 51°13.763 2°55.696 329.4 4.9 329 10.3
2009-08-05 07:13:39 51°13.769 2°55.69 329.4 5.1 328 10.3
2009-08-05 07:13:44 51°13.776 2°55.684 329.6 5.3 329 10
2009-08-05 07:13:48 51°13.781 2°55.679 329.7 5.5 329 10.2
2009-08-05 07:13:53 51°13.787 2°55.673 329.7 5.6 329 10.3
2009-08-05 07:13:58 51°13.794 2°55.666 329.9 5.8 329 10.2
2009-08-05 07:14:03 51°13.801 2°55.66 330.8 5.9 330 10.2
2009-08-05 07:14:08 51°13.809 2°55.653 331.6 6.1 330 10.4
2009-08-05 07:14:13 51°13.816 2°55.646 332 6.2 331 10.4
2009-08-05 07:14:18 51°13.824 2°55.639 332.5 6.3 332 10.2
2009-08-05 07:14:23 51°13.832 2°55.633 333 6.5 332 10.3
2009-08-05 07:14:28 51°13.84 2°55.626 333.5 3.3 332 9.9
2009-08-05 07:14:31 51°13.845 2°55.622 334.3 3.9 333 9.7
2009-08-05 07:14:37 51°13.855 2°55.613 334.6 4.3 333 9.9
2009-08-05 07:14:42 51°13.864 2°55.606 334.7 7.3 333 10.4
2009-08-05 07:14:47 51°13.873 2°55.599 335 7.3 334 10.1
2009-08-05 07:14:52 51°13.882 2°55.592 335.4 7.3 333 10
2009-08-05 07:14:56 51°13.889 2°55.586 335 7.5 333 10.3
2009-08-05 07:15:02 51°13.901 2°55.577 334.9 7.6 334 9.9
2009-08-05 07:15:07 51°13.91 2°55.569 335.4 7.6 334 9.8
2009-08-05 07:15:12 51°13.92 2°55.562 335.5 7.7 333 9.8
2009-08-05 07:15:17 51°13.929 2°55.554 335 7.8 333 9.8
2009-08-05 07:15:22 51°13.939 2°55.546 334.9 7.9 333 9.8
2009-08-05 07:15:27 51°13.949 2°55.539 335.3 7.9 334 9.8
2009-08-05 07:15:32 51°13.959 2°55.53 335.3 8 333 9.8
2009-08-05 07:15:37 51°13.969 2°55.523 335.2 8 333 9.7
2009-08-05 07:15:42 51°13.979 2°55.515 335.4 8 334 9.8
2009-08-05 07:15:47 51°13.989 2°55.507 335.4 8 334 9.7
2009-08-05 07:15:52 51°13.999 2°55.499 335.8 8.1 335 9.7
2009-08-05 07:15:56 51°14.007 2°55.493 336.6 8.1 335 9.7
2009-08-05 07:16:02 51°14.019 2°55.483 336.9 8.1 335 9.6
2009-08-05 07:16:07 51°14.03 2°55.476 336.9 8.1 335 9.7
2009-08-05 07:16:12 51°14.04 2°55.468 337.3 8.2 335 10
2009-08-05 07:16:17 51°14.05 2°55.46 337.1 8.2 334 10
2009-08-05 07:16:22 51°14.06 2°55.452 336.6 8.3 334 10.1
2009-08-05 07:16:27 51°14.071 2°55.445 336.9 8.3 335 10
2009-08-05 07:16:32 51°14.081 2°55.437 337.1 8.3 334 9.8
2009-08-05 07:16:36 51°14.089 2°55.43 336.1 8.3 333 9.9
2009-08-05 07:16:42 51°14.102 2°55.42 335.6 8.3 334 9.9
2009-08-05 07:16:47 51°14.112 2°55.412 335.4 8.3 333 10.1
2009-08-05 07:16:52 51°14.122 2°55.404 335.3 8.3 334 10.2
2009-08-05 07:16:56 51°14.13 2°55.397 335.2 8.3 332 10.2
2009-08-05 07:17:02 51°14.142 2°55.386 334.3 8.3 331 10.3
2009-08-05 07:17:07 51°14.152 2°55.377 333.2 8.3 330 10.2
2009-08-05 07:17:12 51°14.162 2°55.368 331.4 8.2 329 10.2
2009-08-05 07:17:17 51°14.172 2°55.358 331 8.2 329 10.2
2009-08-05 07:17:22 51°14.181 2°55.348 329.9 8.2 326 10.2
2009-08-05 07:17:27 51°14.19 2°55.338 328.6 8.2 325 10.2
2009-08-05 07:17:32 51°14.2 2°55.328 327.4 8.2 324 10.2
2009-08-05 07:17:36 51°14.207 2°55.319 326.6 8.2 324 10.3
2009-08-05 07:17:42 51°14.218 2°55.306 325.9 8.2 322 10.4
2009-08-05 07:17:47 51°14.226 2°55.294 324.1 8.2 320 10.4
2009-08-05 07:17:52 51°14.235 2°55.282 321.8 8.3 318 10.3
2009-08-05 07:17:56 51°14.242 2°55.272 320 8.4 317 10.3
2009-08-05 07:18:02 51°14.252 2°55.256 318.6 8.5 315 10.4
2009-08-05 07:18:07 51°14.26 2°55.242 317.2 8.6 314 10.3
2009-08-05 07:18:12 51°14.268 2°55.228 315.7 8.7 313 10.1
2009-08-05 07:18:16 51°14.275 2°55.217 314.9 8.8 312 10.4
2009-08-05 07:18:22 51°14.285 2°55.199 314.5 9 312 10.6
2009-08-05 07:18:27 51°14.293 2°55.184 313.6 9.1 311 10
2009-08-05 07:18:32 51°14.301 2°55.169 312.9 9.1 311 9.7
2009-08-05 07:18:36 51°14.308 2°55.157 312.6 9.2 310 9.8
2009-08-05 07:18:42 51°14.317 2°55.137 311.3 9.3 308 9.9
2009-08-05 07:18:47 51°14.326 2°55.122 310.6 9.4 309 10.1
2009-08-05 07:18:52 51°14.334 2°55.105 310.2 9.5 308 10
2009-08-05 07:18:57 51°14.342 2°55.088 309.3 9.6 307 10.1
2009-08-05 07:19:02 51°14.35 2°55.071 308.7 9.8 307 9.9
2009-08-05 07:19:07 51°14.358 2°55.053 308.6 10.1 306 9.6
2009-08-05 07:19:12 51°14.367 2°55.035 308.7 10.2 307 9.5
2009-08-05 07:19:16 51°14.374 2°55.02 309 10.4 306 9.3
2009-08-05 07:19:22 51°14.384 2°54.997 307.9 10.5 305 9.1
2009-08-05 07:19:27 51°14.392 2°54.978 307.1 10.7 305 9.1
2009-08-05 07:19:32 51°14.402 2°54.959 307.8 10.8 308 9.2
2009-08-05 07:19:37 51°14.411 2°54.941 310.2 10.9 309 9.4
2009-08-05 07:19:42 51°14.421 2°54.922 312.7 11 311 9.5
2009-08-05 07:19:47 51°14.431 2°54.904 314.6 11.1 310 9.6
2009-08-05 07:19:52 51°14.441 2°54.885 314.8 11.2 309 9.6
2009-08-05 07:19:56 51°14.449 2°54.87 315.1 11.2 312 9.7
2009-08-05 07:20:02 51°14.462 2°54.848 317.4 11.2 315 9.7
2009-08-05 07:20:07 51°14.474 2°54.832 320.9 11.1 319 9.7
2009-08-05 07:20:12 51°14.486 2°54.816 324.5 11.1 321 9.7
2009-08-05 07:20:16 51°14.495 2°54.804 327.3 11.1 323 9.6
2009-08-05 07:20:22 51°14.51 2°54.787 328.5 11.1 322 9.5
2009-08-05 07:20:27 51°14.523 2°54.772 328.3 11.1 323 9.5
2009-08-05 07:20:32 51°14.535 2°54.758 329.7 11.1 326 9.4
2009-08-05 07:20:36 51°14.546 2°54.748 332.1 11 328 9.3
2009-08-05 07:20:42 51°14.562 2°54.733 334.7 11 331 9.2
2009-08-05 07:20:47 51°14.575 2°54.722 336.9 10.9 333 9.1
2009-08-05 07:20:52 51°14.589 2°54.712 339.3 10.9 336 9.1
2009-08-05 07:20:56 51°14.6 2°54.705 342.3 10.8 338 9.1
2009-08-05 07:21:02 51°14.617 2°54.696 345.2 10.8 341 9
2009-08-05 07:21:07 51°14.631 2°54.689 348 10.7 344 9
2009-08-05 07:21:12 51°14.646 2°54.683 350 10.7 345 9
2009-08-05 07:21:17 51°14.66 2°54.677 351.2 10.7 346 9
2009-08-05 07:21:22 51°14.674 2°54.672 352.9 10.7 347 9
2009-08-05 07:21:27 51°14.689 2°54.666 353.5 10.8 346 9.1
2009-08-05 07:21:32 51°14.703 2°54.66 352.7 10.8 346 8.9
2009-08-05 07:21:36 51°14.715 2°54.656 352.6 10.8 347 8.9
2009-08-05 07:21:42 51°14.733 2°54.649 352.6 10.8 346 9
2009-08-05 07:21:47 51°14.747 2°54.644 353.2 10.8 348 9
2009-08-05 07:21:52 51°14.762 2°54.639 353.6 10.8 347 8.8
2009-08-05 07:21:57 51°14.776 2°54.634 354 10.8 348 8.9
2009-08-05 07:22:02 51°14.791 2°54.629 354.2 10.8 348 8.8
2009-08-05 07:22:07 51°14.806 2°54.624 354.1 10.8 348 8.8
2009-08-05 07:22:12 51°14.821 2°54.619 354 10.9 348 8.9
2009-08-05 07:22:17 51°14.835 2°54.614 353.9 10.9 348 8.8
2009-08-05 07:22:22 51°14.85 2°54.609 353.9 10.9 348 8.8
2009-08-05 07:22:27 51°14.865 2°54.605 353.9 10.9 348 8.8
2009-08-05 07:22:32 51°14.88 2°54.599 353.3 10.9 347 8.9
2009-08-05 07:22:36 51°14.891 2°54.595 352.8 10.9 347 9.1
2009-08-05 07:22:42 51°14.909 2°54.588 352.2 10.9 347 9.2
2009-08-05 07:22:47 51°14.924 2°54.583 352.1 10.9 347 9.3
2009-08-05 07:22:52 51°14.939 2°54.577 351.9 10.9 346 9.1
2009-08-05 07:22:57 51°14.953 2°54.572 351.7 11 347 9.2
2009-08-05 07:23:02 51°14.968 2°54.566 351.5 10.9 347 9
2009-08-05 07:23:07 51°14.983 2°54.561 351.9 10.9 348 8.8
2009-08-05 07:23:12 51°14.998 2°54.556 352.7 10.8 348 8.4
2009-08-05 07:23:16 51°15.009 2°54.551 352.3 10.8 346 8.3
2009-08-05 07:23:22 51°15.027 2°54.545 351.8 10.8 346 8
2009-08-05 07:23:27 51°15.041 2°54.539 351.6 10.7 346 7.9
2009-08-05 07:23:32 51°15.056 2°54.533 351.4 10.7 346 7.7
2009-08-05 07:23:36 51°15.067 2°54.529 351.4 10.6 346 7.6
2009-08-05 07:23:42 51°15.084 2°54.522 351.9 10.6 347 7.7
2009-08-05 07:23:47 51°15.098 2°54.517 352.8 10.6 347 7.6
2009-08-05 07:23:52 51°15.113 2°54.512 353.3 10.6 348 7.7
2009-08-05 07:23:56 51°15.124 2°54.509 353.8 10.6 348 7.6
2009-08-05 07:24:02 51°15.141 2°54.503 354.3 10.6 349 7.5
2009-08-05 07:24:07 51°15.156 2°54.498 354.6 10.6 348 7.6
2009-08-05 07:24:12 51°15.17 2°54.494 354.4 10.6 348 7.8
2009-08-05 07:24:17 51°15.185 2°54.489 354.4 10.6 349 7.8
2009-08-05 07:24:22 51°15.199 2°54.484 354.7 10.7 349 8.1
2009-08-05 07:24:27 51°15.214 2°54.48 354.7 10.7 349 7.9
2009-08-05 07:24:32 51°15.228 2°54.475 354.9 10.7 349 8
2009-08-05 07:24:36 51°15.24 2°54.472 355 10.7 349 8
2009-08-05 07:24:42 51°15.257 2°54.466 355 10.7 349 8
2009-08-05 07:24:47 51°15.272 2°54.462 355 10.7 349 8.1
2009-08-05 07:24:52 51°15.286 2°54.457 355 10.7 348 8.1
2009-08-05 07:24:57 51°15.301 2°54.452 354.5 10.7 348 8.3
2009-08-05 07:25:02 51°15.315 2°54.447 354.1 10.7 347 8.2
2009-08-05 07:25:07 51°15.33 2°54.441 353.7 10.7 348 8.2
2009-08-05 07:25:12 51°15.344 2°54.436 353.7 10.7 347 8.2
2009-08-05 07:25:16 51°15.356 2°54.432 353.6 10.7 347 8.3
2009-08-05 07:25:22 51°15.373 2°54.425 353.2 10.7 347 8.4
2009-08-05 07:25:27 51°15.388 2°54.42 353.2 10.7 347 8.4
2009-08-05 07:25:32 51°15.402 2°54.415 352.9 10.7 346 8.4
2009-08-05 07:25:36 51°15.414 2°54.41 352.6 10.7 348 8.6
2009-08-05 07:25:42 51°15.431 2°54.405 354 10.7 349 8.6
2009-08-05 07:25:47 51°15.446 2°54.4 354.3 10.7 350 8.6
2009-08-05 07:25:52 51°15.46 2°54.396 355 10.7 350 8.6
2009-08-05 07:25:56 51°15.472 2°54.393 355.7 10.7 352 8.8
2009-08-05 07:26:02 51°15.489 2°54.389 356.8 10.7 351 8.8
2009-08-05 07:26:07 51°15.504 2°54.386 357.3 10.6 354 8.9
2009-08-05 07:26:12 51°15.519 2°54.384 358.9 10.6 354 8.9
2009-08-05 07:26:16 51°15.53 2°54.381 359.4 10.3 354 8.9
2009-08-05 07:26:22 51°15.547 2°54.379 0.4 10.1 355 9.1
2009-08-05 07:26:27 51°15.56 2°54.377 0.8 9.7 355 9.1